Time;durP1;ratioP1;P1;durP2;ratioP2;P2;SDS_P1;SDS_P2;PMS_P1;PMS_P2;Temp;Humidity;BMP_temperature;BMP_pressure;BME280_temperature;BME280_humidity;BME280_pressure;Samples;Min_cycle;Max_cycle;Signal;HPM_P1;HPM_P2
2022/07/02 00:01:57;;;;;;;9.10;6.20;;;;;;;14.98;73.46;102081.41;5042995;28;20032;-66
2022/07/02 00:04:27;;;;;;;10.40;6.20;;;;;;;15.04;73.30;102093.16;5041704;28;20039;-66
2022/07/02 00:06:53;;;;;;;9.68;6.18;;;;;;;14.96;73.13;102085.09;5039766;28;20029;-65
2022/07/02 00:09:19;;;;;;;9.18;6.13;;;;;;;14.91;73.46;102084.63;5047950;28;20382;-66
2022/07/02 00:11:45;;;;;;;8.38;5.78;;;;;;;14.93;73.41;102085.34;5038884;28;20226;-67
2022/07/02 00:14:10;;;;;;;9.23;6.07;;;;;;;14.94;73.20;102094.84;5029190;28;20488;-66
2022/07/02 00:16:36;;;;;;;9.30;5.93;;;;;;;14.76;73.25;102073.63;5040782;28;20133;-66
2022/07/02 00:19:01;;;;;;;9.13;6.30;;;;;;;14.82;73.38;102087.03;5034239;28;20018;-66
2022/07/02 00:21:27;;;;;;;8.80;6.15;;;;;;;14.84;73.30;102082.50;5042309;28;20479;-66
2022/07/02 00:23:52;;;;;;;8.85;5.80;;;;;;;14.83;73.45;102091.28;5041333;28;20032;-66
2022/07/02 00:26:32;;;;;;;9.00;6.13;;;;;;;14.84;73.44;102098.19;5047767;28;20116;-66
2022/07/02 00:29:08;;;;;;;8.00;5.53;;;;;;;14.81;73.42;102093.22;5032627;28;20021;-66
2022/07/02 00:31:37;;;;;;;9.27;5.63;;;;;;;14.73;73.38;102082.53;5048489;28;20025;-69
2022/07/02 00:34:05;;;;;;;9.35;5.53;;;;;;;14.72;73.48;102099.16;5046322;28;20075;-66
2022/07/02 00:36:31;;;;;;;9.30;5.43;;;;;;;14.75;73.54;102096.31;5043165;28;20043;-66
2022/07/02 00:38:58;;;;;;;7.38;5.22;;;;;;;14.71;73.50;102097.50;5030705;28;20402;-66
2022/07/02 00:41:24;;;;;;;8.02;5.38;;;;;;;14.72;73.14;102104.38;5033792;28;20124;-65
2022/07/02 00:43:51;;;;;;;9.00;5.55;;;;;;;14.68;72.80;102102.13;5046065;28;20029;-66
2022/07/02 00:46:17;;;;;;;8.38;5.20;;;;;;;14.67;73.07;102100.47;5040569;28;20080;-66
2022/07/02 00:48:43;;;;;;;7.85;5.20;;;;;;;14.65;73.06;102097.16;5028436;28;20060;-68
2022/07/02 00:51:10;;;;;;;9.50;6.00;;;;;;;14.59;73.34;102088.84;5047638;28;20029;-66
2022/07/02 00:53:35;;;;;;;10.73;5.72;;;;;;;14.56;74.08;102088.25;5046519;28;20071;-66
2022/07/02 00:56:01;;;;;;;8.63;5.57;;;;;;;14.51;74.87;102082.59;5046047;28;20032;-66
2022/07/02 00:58:30;;;;;;;9.23;6.45;;;;;;;14.46;74.54;102082.06;5038045;28;20029;-67
2022/07/02 01:00:56;;;;;;;9.98;6.40;;;;;;;14.37;74.66;102064.50;5040745;28;20029;-66
2022/07/02 01:03:21;;;;;;;8.02;5.80;;;;;;;14.48;74.40;102085.41;5035685;28;20039;-69
2022/07/02 01:05:48;;;;;;;9.25;6.35;;;;;;;14.49;73.92;102081.84;5045789;28;20025;-65
2022/07/02 01:11:01;;;;;;;10.95;6.03;;;;;;;14.10;74.21;102021.31;5038546;28;20140;-66
2022/07/02 01:13:32;;;;;;;8.45;5.72;;;;;;;14.35;74.72;102075.06;5041951;28;20491;-65
2022/07/02 01:15:58;;;;;;;10.10;5.85;;;;;;;14.38;74.51;102074.00;5036462;28;20471;-66
2022/07/02 01:18:23;;;;;;;8.20;5.72;;;;;;;14.38;73.86;102068.78;5035878;28;20033;-68
2022/07/02 01:20:48;;;;;;;9.82;6.00;;;;;;;14.35;73.78;102067.25;5046550;28;20028;-66
2022/07/02 01:23:14;;;;;;;8.95;5.60;;;;;;;14.33;73.77;102071.72;5043203;28;20021;-66
2022/07/02 01:25:40;;;;;;;10.43;5.90;;;;;;;14.33;73.98;102072.56;5029802;28;20036;-69
2022/07/02 01:28:05;;;;;;;8.60;5.97;;;;;;;14.21;74.05;102075.28;5047139;28;20025;-68
2022/07/02 01:30:31;;;;;;;9.63;5.53;;;;;;;14.26;73.96;102074.00;5032618;28;20029;-66
2022/07/02 01:32:56;;;;;;;6.57;5.18;;;;;;;14.23;73.98;102073.41;5036092;28;20032;-66
2022/07/02 01:35:22;;;;;;;7.95;5.65;;;;;;;14.16;73.59;102067.81;5032043;28;20063;-66
2022/07/02 01:37:49;;;;;;;7.97;5.50;;;;;;;14.20;73.94;102077.06;5037675;28;20041;-68
2022/07/02 01:40:14;;;;;;;8.98;5.50;;;;;;;14.15;73.76;102079.19;5026762;28;20029;-66
2022/07/02 01:42:41;;;;;;;9.55;5.50;;;;;;;14.16;73.48;102080.84;5037714;28;20507;-66
2022/07/02 01:45:07;;;;;;;8.93;5.40;;;;;;;14.14;73.44;102074.94;5034458;28;20033;-66
2022/07/02 01:47:32;;;;;;;7.13;5.50;;;;;;;14.15;73.42;102079.19;5042611;28;20047;-67
2022/07/02 01:49:58;;;;;;;9.00;5.55;;;;;;;14.13;73.27;102086.34;5047311;28;20112;-66
2022/07/02 01:52:26;;;;;;;8.65;5.72;;;;;;;14.01;73.22;102061.19;5033247;28;20453;-66
2022/07/02 01:54:51;;;;;;;7.57;5.05;;;;;;;14.12;73.10;102076.84;5045939;28;20043;-66
2022/07/02 01:57:16;;;;;;;8.75;5.43;;;;;;;14.08;73.50;102072.81;5038243;28;20016;-65
2022/07/02 01:59:42;;;;;;;8.25;5.57;;;;;;;14.05;73.68;102078.28;5039514;28;20140;-69
2022/07/02 02:02:07;;;;;;;8.70;5.53;;;;;;;13.94;74.07;102070.44;5034244;28;20359;-66
2022/07/02 02:04:33;;;;;;;7.93;5.45;;;;;;;14.03;73.93;102072.31;5033426;28;20017;-66
2022/07/02 02:06:59;;;;;;;8.73;5.30;;;;;;;13.97;74.05;102064.97;5045633;28;20025;-66
2022/07/02 02:09:24;;;;;;;7.85;5.38;;;;;;;13.91;73.95;102062.81;5041962;28;20100;-65
2022/07/02 02:11:49;;;;;;;8.48;5.78;;;;;;;13.90;73.89;102069.00;5037779;28;20086;-66
2022/07/02 02:14:15;;;;;;;8.13;5.75;;;;;;;13.96;73.49;102068.53;5042831;28;20033;-66
2022/07/02 02:16:40;;;;;;;9.70;5.50;;;;;;;13.86;73.83;102054.50;5045613;28;20051;-66
2022/07/02 02:19:06;;;;;;;9.10;5.82;;;;;;;13.90;74.49;102069.00;5033602;28;20025;-66
2022/07/02 02:21:32;;;;;;;8.63;5.47;;;;;;;13.91;74.29;102070.66;5037591;28;20021;-66
2022/07/02 02:23:58;;;;;;;9.48;6.18;;;;;;;13.94;73.63;102068.66;5027240;28;20492;-66
2022/07/02 02:26:25;;;;;;;8.95;5.53;;;;;;;13.94;73.52;102070.44;5029805;28;20043;-66
2022/07/02 02:28:51;;;;;;;8.75;5.70;;;;;;;13.94;73.20;102070.44;5036805;28;20025;-66
2022/07/02 02:31:16;;;;;;;8.15;5.53;;;;;;;13.92;73.24;102067.09;5026516;28;20071;-66
2022/07/02 02:33:42;;;;;;;7.60;5.03;;;;;;;13.94;72.72;102070.44;5044540;28;20025;-67
2022/07/02 02:36:08;;;;;;;7.40;5.22;;;;;;;13.91;72.87;102066.25;5046043;28;20094;-66
2022/07/02 02:38:36;;;;;;;9.95;5.30;;;;;;;13.87;72.42;102070.03;5040184;28;20653;-68
2022/07/02 02:41:05;;;;;;;9.93;5.45;;;;;;;13.84;72.65;102066.84;5026876;28;20091;-68
2022/07/02 02:43:35;;;;;;;8.52;5.90;;;;;;;13.85;72.62;102066.72;5037893;28;20045;-67
2022/07/02 02:46:01;;;;;;;7.82;5.43;;;;;;;13.86;72.44;102065.78;5039616;28;20095;-68
2022/07/02 02:48:28;;;;;;;8.43;5.30;;;;;;;13.82;72.26;102073.03;5029816;28;20461;-68
2022/07/02 02:50:53;;;;;;;9.23;5.43;;;;;;;13.77;72.03;102072.53;5035266;28;20043;-68
2022/07/02 02:53:19;;;;;;;7.82;5.22;;;;;;;13.68;72.32;102073.22;5035143;28;20024;-67
2022/07/02 02:55:44;;;;;;;10.70;5.50;;;;;;;13.51;73.69;102078.84;5040479;28;20040;-67
2022/07/02 02:58:09;;;;;;;7.88;5.20;;;;;;;13.61;73.62;102079.84;5032042;28;20529;-68
2022/07/02 03:00:35;;;;;;;8.10;5.40;;;;;;;13.40;74.58;102077.03;5037456;28;20067;-68
2022/07/02 03:03:00;;;;;;;8.93;5.70;;;;;;;13.53;75.08;102082.16;5045186;28;20033;-67
2022/07/02 03:05:26;;;;;;;8.82;6.00;;;;;;;13.48;74.46;102073.88;5032706;28;20028;-67
2022/07/02 03:07:52;;;;;;;8.18;5.53;;;;;;;13.41;75.31;102088.28;5036196;28;20463;-68
2022/07/02 03:10:17;;;;;;;7.82;5.40;;;;;;;13.46;75.24;102080.97;5038440;28;20476;-69
2022/07/02 03:12:43;;;;;;;8.55;5.57;;;;;;;13.54;75.73;102083.84;5024929;28;20488;-67
2022/07/02 03:15:08;;;;;;;8.98;6.50;;;;;;;13.58;75.23;102095.69;5030973;28;20033;-67
2022/07/02 03:17:34;;;;;;;9.25;6.30;;;;;;;13.53;75.03;102087.38;5028819;28;20140;-67
2022/07/02 03:19:59;;;;;;;11.57;6.20;;;;;;;13.58;74.70;102084.44;5043807;28;20484;-67
2022/07/02 03:22:24;;;;;;;8.98;6.07;;;;;;;13.63;74.85;102098.78;5042760;28;20120;-67
2022/07/02 03:24:50;;;;;;;10.80;6.28;;;;;;;13.59;75.44;102097.38;5037830;28;20053;-68
2022/07/02 03:27:15;;;;;;;8.95;5.97;;;;;;;13.61;74.80;102098.09;5035263;28;20017;-68
2022/07/02 03:29:41;;;;;;;9.48;6.22;;;;;;;13.63;74.85;102104.00;5040479;28;20776;-67
2022/07/02 03:32:06;;;;;;;11.45;6.00;;;;;;;13.61;74.81;102111.13;5031933;28;20056;-68
2022/07/02 03:34:32;;;;;;;7.22;5.70;;;;;;;13.52;76.32;102107.41;5032493;28;20484;-67
2022/07/02 03:36:57;;;;;;;8.10;5.93;;;;;;;13.55;76.15;102111.56;5025395;28;20539;-68
2022/07/02 03:39:22;;;;;;;8.13;6.05;;;;;;;13.58;75.76;102095.69;5036213;28;20031;-67
2022/07/02 03:41:48;;;;;;;7.28;5.82;;;;;;;13.55;74.98;102101.16;5040932;28;20048;-68
2022/07/02 03:44:13;;;;;;;9.82;5.55;;;;;;;13.57;74.89;102108.84;5041150;28;20433;-68
2022/07/02 03:46:38;;;;;;;8.50;5.70;;;;;;;13.49;74.82;102091.16;5029507;28;20048;-68
2022/07/02 03:49:04;;;;;;;8.27;6.00;;;;;;;13.51;75.11;102097.09;5047102;28;20025;-68
2022/07/02 03:51:29;;;;;;;10.07;6.13;;;;;;;13.52;74.95;102098.75;5037348;28;20563;-67
2022/07/02 03:53:54;;;;;;;9.45;6.05;;;;;;;13.50;75.01;102111.06;5045199;28;20139;-68
2022/07/02 03:56:20;;;;;;;7.68;5.60;;;;;;;13.52;75.19;102106.56;5044782;28;20388;-68
2022/07/02 03:58:45;;;;;;;9.15;5.47;;;;;;;13.43;74.27;102100.28;5033693;28;20327;-67
2022/07/02 04:01:11;;;;;;;10.10;5.75;;;;;;;13.39;74.78;102095.38;5032795;28;20124;-68
2022/07/02 04:03:36;;;;;;;8.48;5.97;;;;;;;13.49;74.54;102106.81;5041499;28;20029;-68
2022/07/02 04:06:02;;;;;;;8.88;5.78;;;;;;;13.25;74.72;102068.56;5042668;28;20021;-68
2022/07/02 04:08:28;;;;;;;8.90;5.70;;;;;;;13.50;74.82;102113.69;5037312;28;20025;-68
2022/07/02 04:10:53;;;;;;;8.90;5.72;;;;;;;13.52;75.05;102115.22;5028885;28;20033;-68
2022/07/02 04:13:19;;;;;;;8.52;5.78;;;;;;;13.50;74.79;102111.06;5029323;28;20021;-67
2022/07/02 04:15:44;;;;;;;10.68;5.80;;;;;;;13.47;74.96;102108.69;5042175;28;20025;-68
2022/07/02 04:18:10;;;;;;;8.82;5.80;;;;;;;13.48;74.70;102112.97;5029357;28;20458;-67
2022/07/02 04:20:35;;;;;;;8.40;5.82;;;;;;;13.52;74.90;102111.78;5041243;28;20033;-67
2022/07/02 04:23:00;;;;;;;8.65;5.65;;;;;;;13.52;75.43;102112.59;5034539;28;20031;-67
2022/07/02 04:25:26;;;;;;;10.07;6.03;;;;;;;13.50;75.24;102118.91;5036043;28;20654;-67
2022/07/02 04:27:51;;;;;;;9.07;5.97;;;;;;;13.54;75.49;102125.56;5044567;28;20028;-67
2022/07/02 04:30:16;;;;;;;9.82;5.97;;;;;;;13.53;75.51;102116.03;5029404;28;20450;-67
2022/07/02 04:32:42;;;;;;;11.38;5.97;;;;;;;13.54;75.17;102120.34;5040149;28;20031;-68
2022/07/02 04:35:07;;;;;;;9.93;5.80;;;;;;;13.54;75.44;102115.94;5030386;28;20099;-68
2022/07/02 04:37:33;;;;;;;8.68;5.57;;;;;;;13.60;75.77;102119.06;5037445;28;20035;-67
2022/07/02 04:39:59;;;;;;;9.48;5.93;;;;;;;13.55;75.43;102127.22;5044436;28;20029;-67
2022/07/02 04:42:24;;;;;;;8.73;5.72;;;;;;;13.56;75.55;102126.25;5035526;28;20084;-67
2022/07/02 04:44:49;;;;;;;8.55;5.82;;;;;;;13.57;75.51;102104.47;5033501;28;20473;-68
2022/07/02 04:47:15;;;;;;;9.85;5.80;;;;;;;13.57;75.60;102114.88;5045696;28;20057;-68
2022/07/02 04:49:40;;;;;;;8.40;5.43;;;;;;;13.68;75.54;102119.31;5047776;28;20021;-68
2022/07/02 04:52:06;;;;;;;10.35;5.50;;;;;;;13.65;75.83;102128.19;5044046;28;20433;-68
2022/07/02 04:54:31;;;;;;;9.45;5.90;;;;;;;13.66;75.69;102124.66;5046753;28;20025;-68
2022/07/02 04:56:57;;;;;;;9.18;5.43;;;;;;;13.67;75.68;102118.47;5036248;28;20025;-68
2022/07/02 04:59:23;;;;;;;9.75;6.13;;;;;;;13.73;75.89;102120.63;5032881;28;20048;-68
2022/07/02 05:01:48;;;;;;;9.43;5.97;;;;;;;13.74;76.24;102117.06;5040077;28;20372;-68
2022/07/02 05:04:14;;;;;;;8.27;5.78;;;;;;;13.72;75.90;102118.16;5040158;28;20465;-68
2022/07/02 05:06:39;;;;;;;8.55;6.07;;;;;;;13.79;75.62;102114.97;5048349;28;20047;-68
2022/07/02 05:09:04;;;;;;;9.10;5.32;;;;;;;13.41;75.50;102041.38;5042331;28;20552;-67
2022/07/02 05:11:30;;;;;;;9.15;5.63;;;;;;;13.88;75.16;102113.44;5028414;28;20912;-67
2022/07/02 05:13:56;;;;;;;9.18;5.30;;;;;;;13.94;74.79;102114.78;5027222;28;20021;-68
2022/07/02 05:16:21;;;;;;;8.13;4.88;;;;;;;13.89;75.51;102114.28;5028994;28;20036;-67
2022/07/02 05:18:47;;;;;;;8.95;4.60;;;;;;;13.91;74.65;102120.19;5038940;28;20029;-68
2022/07/02 05:21:13;;;;;;;9.25;4.75;;;;;;;14.01;73.99;102118.56;5040121;28;20401;-68
2022/07/02 05:23:39;;;;;;;8.55;4.50;;;;;;;14.03;73.32;102111.44;5028164;28;20108;-68
2022/07/02 05:26:04;;;;;;;7.13;4.43;;;;;;;14.05;73.54;102109.56;5043192;28;20078;-67
2022/07/02 05:28:29;;;;;;;7.30;4.30;;;;;;;14.05;73.31;102107.78;5038517;28;20457;-67
2022/07/02 05:30:55;;;;;;;6.93;4.15;;;;;;;14.11;72.22;102113.47;5034447;28;20078;-68
2022/07/02 05:33:21;;;;;;;8.00;4.03;;;;;;;14.14;72.25;102121.91;5026521;28;20401;-68
2022/07/02 05:35:46;;;;;;;8.40;4.50;;;;;;;14.19;72.25;102127.59;5030476;28;20029;-67
2022/07/02 05:38:12;;;;;;;8.00;4.55;;;;;;;14.22;72.34;102122.16;5027438;28;20488;-68
2022/07/02 05:40:37;;;;;;;7.75;4.10;;;;;;;14.24;72.12;102125.47;5040016;28;20041;-67
2022/07/02 05:43:03;;;;;;;7.45;3.85;;;;;;;14.25;71.22;102131.53;5033795;28;20049;-68
2022/07/02 05:45:28;;;;;;;8.13;4.25;;;;;;;14.29;71.58;102135.56;5034737;28;20118;-67
2022/07/02 05:47:54;;;;;;;7.95;3.90;;;;;;;14.31;71.25;102147.53;5047319;28;20512;-67
2022/07/02 05:50:19;;;;;;;8.20;3.75;;;;;;;14.33;71.25;102150.84;5031741;28;20017;-68
2022/07/02 05:52:45;;;;;;;7.47;3.92;;;;;;;14.32;71.19;102143.97;5039050;28;20032;-67
2022/07/02 05:55:10;;;;;;;7.55;4.03;;;;;;;14.35;70.86;102141.16;5030658;28;20029;-68
2022/07/02 05:57:35;;;;;;;7.55;3.95;;;;;;;14.34;71.00;102131.66;5033292;28;20377;-67
2022/07/02 06:00:01;;;;;;;9.23;4.47;;;;;;;14.37;71.99;102141.03;5031292;28;20568;-67
2022/07/02 06:02:26;;;;;;;7.22;4.00;;;;;;;14.44;71.15;102146.59;5028079;28;20103;-68
2022/07/02 06:04:52;;;;;;;6.13;3.80;;;;;;;14.48;71.46;102142.84;5030081;28;20032;-67
2022/07/02 06:10:01;;;;;;;6.55;4.22;;;;;;;14.54;70.98;102143.19;5038367;28;20075;-67
2022/07/02 06:12:26;;;;;;;8.45;3.83;;;;;;;14.55;70.72;102144.03;5030331;28;22371;-69
2022/07/02 06:14:52;;;;;;;7.65;3.90;;;;;;;14.56;71.33;102149.13;5035329;28;20033;-67
2022/07/02 06:17:17;;;;;;;7.70;4.35;;;;;;;14.72;71.03;102140.94;5038470;28;20060;-67
2022/07/02 06:19:45;;;;;;;8.07;4.25;;;;;;;14.79;70.23;102136.88;5035434;28;20033;-67
2022/07/02 06:22:10;;;;;;;7.10;3.97;;;;;;;14.85;69.24;102141.66;5034585;28;20021;-66
2022/07/02 06:24:36;;;;;;;6.60;3.80;;;;;;;14.97;69.53;102139.03;5035180;28;20039;-66
2022/07/02 06:27:01;;;;;;;7.05;3.53;;;;;;;15.09;69.66;102138.03;5040020;28;20380;-65
2022/07/02 06:29:27;;;;;;;7.13;3.70;;;;;;;15.11;68.76;102136.13;5036866;28;20052;-67
2022/07/02 06:31:52;;;;;;;7.60;3.15;;;;;;;15.23;69.29;102150.00;5034262;28;20509;-67
2022/07/02 06:34:17;;;;;;;7.40;2.95;;;;;;;15.34;68.25;102148.19;5032663;28;20480;-66
2022/07/02 06:36:43;;;;;;;5.57;2.45;;;;;;;15.44;68.72;102147.44;5032301;28;20075;-66
2022/07/02 06:39:09;;;;;;;3.78;2.33;;;;;;;15.49;67.63;102155.75;5039814;28;20055;-68
2022/07/02 06:44:18;;;;;;;5.97;2.60;;;;;;;15.58;67.47;102162.84;5030827;28;20028;-67
2022/07/02 06:46:44;;;;;;;6.10;2.58;;;;;;;15.56;67.36;102156.91;5035707;28;20025;-66
2022/07/02 06:49:09;;;;;;;4.53;2.15;;;;;;;15.68;67.20;102171.63;5034654;28;20032;-66
2022/07/02 06:51:34;;;;;;;3.95;1.90;;;;;;;15.70;65.52;102164.47;5039349;28;20854;-69
2022/07/02 06:54:00;;;;;;;5.50;2.13;;;;;;;15.71;65.41;102171.34;5045709;28;20028;-66
2022/07/02 06:56:32;;;;;;;4.43;2.03;;;;;;;15.72;66.79;102178.28;5031710;28;20031;-66
2022/07/02 06:58:57;;;;;;;3.88;2.00;;;;;;;15.76;66.85;102177.03;5026952;28;20040;-67
2022/07/02 07:01:23;;;;;;;4.47;1.88;;;;;;;15.78;66.49;102175.16;5037334;28;20423;-66
2022/07/02 07:03:48;;;;;;;5.22;2.08;;;;;;;15.84;66.62;102181.66;5044056;28;20029;-67
2022/07/02 07:06:14;;;;;;;3.35;1.70;;;;;;;16.03;65.50;102173.13;5034722;28;20017;-66
2022/07/02 07:08:39;;;;;;;4.22;1.60;;;;;;;16.14;64.31;102167.81;5033879;28;20022;-66
2022/07/02 07:11:04;;;;;;;2.65;1.40;;;;;;;16.26;63.23;102172.03;5044316;28;20112;-67
2022/07/02 07:13:30;;;;;;;2.80;1.50;;;;;;;16.41;64.09;102162.88;5043239;28;20033;-65
2022/07/02 07:15:55;;;;;;;4.10;1.50;;;;;;;16.44;64.11;102159.97;5044206;28;20041;-66
2022/07/02 07:18:21;;;;;;;6.03;1.52;;;;;;;16.51;60.62;102159.44;5043740;28;20047;-69
2022/07/02 07:20:47;;;;;;;2.55;1.13;;;;;;;16.62;59.12;102161.97;5037501;28;20492;-66
2022/07/02 07:23:13;;;;;;;4.35;1.20;;;;;;;16.68;60.98;102156.22;5036011;28;20037;-69
2022/07/02 07:25:39;;;;;;;3.03;1.20;;;;;;;16.76;60.83;102159.06;5026573;28;20038;-66
2022/07/02 07:28:04;;;;;;;4.35;1.17;;;;;;;16.87;58.99;102163.34;5036798;28;20377;-67
2022/07/02 07:30:30;;;;;;;1.92;1.00;;;;;;;16.91;58.41;102149.84;5035702;28;20029;-66
2022/07/02 07:32:56;;;;;;;2.13;0.90;;;;;;;17.00;56.90;102150.84;5040561;28;21221;-66
2022/07/02 07:35:21;;;;;;;3.33;0.90;;;;;;;17.16;56.22;102163.44;5040502;28;20064;-66
2022/07/02 07:37:59;;;;;;;2.33;0.90;;;;;;;17.28;58.52;102169.38;5035800;28;20072;-66
2022/07/02 07:40:26;;;;;;;2.63;1.10;;;;;;;17.33;58.96;102169.81;5033097;28;20469;-67
2022/07/02 07:42:51;;;;;;;2.83;1.00;;;;;;;17.47;57.05;102175.47;5023667;28;20390;-66
2022/07/02 07:45:17;;;;;;;2.60;1.10;;;;;;;17.51;55.75;102179.47;5024630;28;20088;-66
2022/07/02 07:47:42;;;;;;;2.80;0.90;;;;;;;17.51;55.21;102155.03;5043637;28;20488;-65
2022/07/02 07:50:08;;;;;;;4.82;1.10;;;;;;;17.69;54.95;102174.34;5033727;28;20017;-67
2022/07/02 07:52:33;;;;;;;3.33;1.10;;;;;;;17.75;54.16;102173.00;5034620;28;20065;-67
2022/07/02 07:54:59;;;;;;;4.20;1.33;;;;;;;17.84;54.53;102169.56;5027712;28;20037;-66
2022/07/02 07:57:24;;;;;;;2.67;1.10;;;;;;;17.92;55.68;102168.84;5036339;28;20022;-67
2022/07/02 07:59:49;;;;;;;3.58;1.20;;;;;;;18.08;54.59;102173.53;5027087;28;20440;-66
2022/07/02 08:02:15;;;;;;;2.45;0.98;;;;;;;18.11;54.04;102153.03;5041800;28;20071;-66
2022/07/02 08:04:41;;;;;;;2.63;0.80;;;;;;;18.24;53.02;102152.75;5044943;28;20523;-68
2022/07/02 08:07:06;;;;;;;1.92;0.82;;;;;;;18.26;52.53;102150.81;5037671;28;20053;-67
2022/07/02 08:09:32;;;;;;;2.08;0.90;;;;;;;18.47;51.94;102159.31;5033994;28;20029;-66
2022/07/02 08:11:57;;;;;;;3.70;1.13;;;;;;;18.54;52.40;102160.38;5036476;28;20679;-66
2022/07/02 08:14:23;;;;;;;2.58;0.80;;;;;;;18.51;50.74;102150.16;5033014;28;20103;-67
2022/07/02 08:16:48;;;;;;;1.35;0.73;;;;;;;18.61;50.12;102151.91;5041131;28;20063;-67
2022/07/02 08:19:14;;;;;;;2.25;0.90;;;;;;;18.79;49.87;102152.81;5027665;28;20604;-66
2022/07/02 08:21:39;;;;;;;3.05;0.93;;;;;;;18.92;51.63;102155.94;5037470;28;20033;-66
2022/07/02 08:24:05;;;;;;;2.50;0.82;;;;;;;19.03;51.82;102150.47;5041678;28;20831;-67
2022/07/02 08:26:30;;;;;;;1.50;0.75;;;;;;;19.08;52.36;102153.47;5041879;28;20024;-66
2022/07/02 08:28:55;;;;;;;1.63;0.70;;;;;;;19.25;52.51;102153.66;5029421;28;20561;-66
2022/07/02 08:31:21;;;;;;;3.38;1.02;;;;;;;19.31;51.52;102147.78;5027803;28;20071;-66
2022/07/02 08:33:46;;;;;;;4.45;0.93;;;;;;;19.43;50.75;102149.22;5045935;28;20114;-66
2022/07/02 08:36:11;;;;;;;2.03;0.80;;;;;;;19.56;50.44;102140.94;5042983;28;20025;-66
2022/07/02 08:38:37;;;;;;;4.63;1.00;;;;;;;19.61;50.07;102142.19;5041328;28;20038;-73
2022/07/02 08:41:02;;;;;;;3.70;1.23;;;;;;;19.78;49.24;102139.66;5031661;28;20032;-66
2022/07/02 08:43:31;;;;;;;3.78;1.00;;;;;;;19.79;52.30;102141.31;5027948;28;20061;-66
2022/07/02 08:46:02;;;;;;;3.65;1.10;;;;;;;19.78;53.76;102132.56;5031447;28;20468;-67
2022/07/02 08:48:28;;;;;;;2.90;1.23;;;;;;;19.93;51.00;102122.31;5028069;28;20541;-66
2022/07/02 08:50:56;;;;;;;4.40;1.27;;;;;;;19.94;51.50;102126.59;5044507;28;20438;-68
2022/07/02 08:53:21;;;;;;;3.28;1.20;;;;;;;20.15;51.55;102132.34;5037870;28;20033;-69
2022/07/02 08:55:49;;;;;;;5.80;1.50;;;;;;;20.28;50.79;102126.63;5041953;28;20127;-66
2022/07/02 08:58:15;;;;;;;3.38;1.00;;;;;;;20.33;50.50;102128.81;5032456;28;20065;-67
2022/07/02 09:00:42;;;;;;;3.70;1.38;;;;;;;20.38;51.67;102131.78;5033341;28;20503;-68
2022/07/02 09:03:09;;;;;;;2.67;1.17;;;;;;;20.60;49.66;102131.25;5047463;28;20043;-66
2022/07/02 09:05:35;;;;;;;4.47;1.20;;;;;;;20.58;50.52;102120.03;5046218;28;20029;-66
2022/07/02 09:08:01;;;;;;;3.63;1.30;;;;;;;20.81;50.22;102127.34;5039350;28;20081;-66
2022/07/02 09:10:27;;;;;;;3.97;1.10;;;;;;;20.89;49.46;102119.50;5040242;28;20036;-69
2022/07/02 09:12:54;;;;;;;4.47;1.15;;;;;;;21.02;49.04;102122.47;5029747;28;20044;-67
2022/07/02 09:15:20;;;;;;;3.90;1.17;;;;;;;21.01;48.57;102102.38;5027565;28;20025;-66
2022/07/02 09:17:45;;;;;;;4.25;1.50;;;;;;;21.12;48.59;102109.97;5036245;28;20033;-67
2022/07/02 09:20:11;;;;;;;5.43;1.45;;;;;;;21.16;47.71;102116.56;5033656;28;20029;-66
2022/07/02 09:22:41;;;;;;;3.83;1.27;;;;;;;21.28;48.45;102108.34;5032363;28;20098;-67
2022/07/02 09:25:12;;;;;;;4.05;1.20;;;;;;;21.18;48.66;102113.75;5033827;28;20488;-66
2022/07/02 09:27:38;;;;;;;3.83;1.27;;;;;;;21.15;48.60;102109.63;5036550;28;20068;-65
2022/07/02 09:30:04;;;;;;;5.40;1.45;;;;;;;21.44;49.36;102116.25;5033835;28;20405;-67
2022/07/02 09:32:37;;;;;;;3.53;1.27;;;;;;;21.61;48.54;102104.72;5037702;28;20025;-66
2022/07/02 09:35:03;;;;;;;4.13;1.30;;;;;;;21.71;47.60;102105.38;5029434;28;20043;-66
2022/07/02 09:37:28;;;;;;;4.90;1.30;;;;;;;21.70;46.63;102106.34;5036298;28;20041;-68
2022/07/02 09:39:57;;;;;;;6.10;1.40;;;;;;;21.79;46.33;102111.63;5044068;28;20448;-66
2022/07/02 09:42:33;;;;;;;3.33;1.10;;;;;;;21.96;48.60;102100.03;5042269;28;20053;-67
2022/07/02 09:45:01;;;;;;;5.22;1.33;;;;;;;21.86;46.65;102096.78;5034018;28;20031;-66
2022/07/02 09:47:36;;;;;;;5.85;1.27;;;;;;;21.98;47.27;102095.41;5031861;28;20029;-67
2022/07/02 09:50:12;;;;;;;3.58;1.17;;;;;;;22.04;47.82;102078.88;5032672;28;20025;-66
2022/07/02 09:52:48;;;;;;;3.40;1.02;;;;;;;22.19;47.45;102098.38;5035983;28;20029;-67
2022/07/02 09:55:21;;;;;;;3.45;1.08;;;;;;;22.26;46.48;102094.03;5042486;28;20025;-67
2022/07/02 09:57:54;;;;;;;4.25;1.25;;;;;;;22.35;46.34;102091.34;5037981;28;20033;-68
2022/07/02 10:00:21;;;;;;;3.75;1.40;;;;;;;22.27;44.89;102095.69;5029280;28;20068;-66
2022/07/02 10:02:51;;;;;;;5.18;1.38;;;;;;;22.17;46.01;102100.34;5040014;28;20030;-67
2022/07/02 10:05:26;;;;;;;2.92;1.13;;;;;;;22.32;46.06;102091.72;5028386;28;20525;-67
2022/07/02 10:07:53;;;;;;;3.58;1.40;;;;;;;22.59;45.64;102088.56;5031363;28;20025;-67
2022/07/02 10:10:25;;;;;;;4.78;1.50;;;;;;;22.67;45.30;102085.91;5032507;28;20025;-66
2022/07/02 10:12:52;;;;;;;4.93;1.42;;;;;;;22.53;43.29;102084.81;5037394;28;20038;-66
2022/07/02 10:15:23;;;;;;;4.63;1.40;;;;;;;22.41;45.26;102074.78;5030444;28;20481;-66
2022/07/02 10:17:52;;;;;;;4.22;1.30;;;;;;;22.21;45.72;102080.50;5035521;28;20067;-66
2022/07/02 10:20:18;;;;;;;5.55;1.20;;;;;;;22.63;46.31;102074.03;5034935;28;20076;-66
2022/07/02 10:22:43;;;;;;;4.55;1.23;;;;;;;22.67;45.32;102067.38;5026951;28;20028;-66
2022/07/02 10:25:09;;;;;;;6.25;1.30;;;;;;;22.73;43.81;102068.50;5036956;28;20400;-66
2022/07/02 10:27:35;;;;;;;3.17;1.27;;;;;;;22.85;44.31;102071.56;5031955;28;20031;-66
2022/07/02 10:30:01;;;;;;;3.92;1.55;;;;;;;22.63;43.18;102066.09;5042226;28;20013;-67
2022/07/02 10:32:35;;;;;;;4.63;1.40;;;;;;;22.71;44.43;102060.75;5045480;28;20116;-66
2022/07/02 10:35:12;;;;;;;4.18;1.67;;;;;;;22.56;46.03;102065.13;5028267;28;20342;-67
2022/07/02 10:37:41;;;;;;;3.35;1.30;;;;;;;22.91;45.71;102066.44;5034773;28;20028;-68
2022/07/02 10:40:08;;;;;;;4.75;1.70;;;;;;;23.11;44.61;102045.63;5029036;28;20387;-66
2022/07/02 10:42:42;;;;;;;4.47;1.20;;;;;;;23.22;43.30;102058.41;5026521;28;20136;-67
2022/07/02 10:45:09;;;;;;;2.10;1.00;;;;;;;23.37;43.39;102052.34;5028102;28;20025;-67
2022/07/02 10:47:35;;;;;;;2.90;1.50;;;;;;;23.37;42.13;102049.69;5037336;28;20017;-66
2022/07/02 10:50:00;;;;;;;4.13;1.20;;;;;;;23.38;42.94;102056.63;5023618;28;20017;-67
2022/07/02 10:52:51;;;;;;;2.83;1.10;;;;;;;23.35;45.12;102051.72;5037945;28;20061;-67
2022/07/02 10:55:30;;;;;;;4.57;1.40;;;;;;;23.51;44.49;102056.81;5028856;28;20104;-67
2022/07/02 10:58:03;;;;;;;3.80;1.60;;;;;;;23.34;43.32;102045.59;5034970;28;20037;-66
2022/07/02 11:00:39;;;;;;;5.03;1.42;;;;;;;23.17;44.27;102050.19;5027606;28;20029;-69
2022/07/02 11:03:14;;;;;;;3.63;1.30;;;;;;;23.20;43.29;102049.84;5033222;28;20055;-67
2022/07/02 11:05:51;;;;;;;3.70;1.33;;;;;;;23.37;43.53;102062.94;5034330;28;20037;-68
2022/07/02 11:08:43;;;;;;;4.43;1.30;;;;;;;23.35;43.63;102055.19;5033781;28;20070;-68
2022/07/02 11:11:10;;;;;;;5.40;1.30;;;;;;;23.18;41.56;102046.56;5024382;28;20037;-67
2022/07/02 11:13:44;;;;;;;4.35;1.15;;;;;;;23.15;43.29;102046.91;5027541;28;20021;-66
2022/07/02 11:16:38;;;;;;;2.67;1.30;;;;;;;23.15;43.92;102044.25;5041223;28;20056;-66
2022/07/02 11:19:29;;;;;;;2.92;1.13;;;;;;;23.11;43.40;102042.97;5025423;28;20036;-67
2022/07/02 11:21:59;;;;;;;4.20;1.35;;;;;;;22.84;43.19;102043.47;5044066;28;20040;-67
2022/07/02 11:24:29;;;;;;;2.55;1.17;;;;;;;22.77;44.07;102044.19;5025574;28;20116;-66
2022/07/02 11:26:55;;;;;;;3.28;1.20;;;;;;;22.96;42.74;102042.91;5038246;28;20021;-68
2022/07/02 11:29:21;;;;;;;2.13;1.30;;;;;;;23.22;43.08;102036.41;5037058;28;20313;-67
2022/07/02 11:31:51;;;;;;;4.38;1.20;;;;;;;23.44;42.25;102030.25;5027151;28;20037;-67